AZU2834 SBJP-SBRF
Flight info
| Callsign | AZU2834 |
|---|---|
| Flight time | 0h 19m |
| Altitude | 11000 |
| Route | IBDEM |
| Aircraft | A20N/M-SDE2E3FGHIRWXY/LB1 |
Departure
| Time | 2026-05-09 14:57 |
|---|---|
| Airport | Presidente Castro Pinto International Airport (SBJP) |
Arrival
| Time | 2026-05-09 15:16 |
|---|---|
| Airport | Recife/Guararapes - Gilberto Freyre International Airport (SBRF) |
| Time | Latitude | Longitude | Altitude | Speed | Heading |
|---|---|---|---|---|---|
| 2026-05-09 14:40 | -7.14557 | -34.94954 | 219 ft | 0 kts | 137° |
| 2026-05-09 14:43 | -7.14551 | -34.94960 | 218 ft | 2 kts | 137° |
| 2026-05-09 14:43 | -7.14540 | -34.94970 | 218 ft | 2 kts | 137° |
| 2026-05-09 14:43 | -7.14532 | -34.94983 | 218 ft | 2 kts | 97° |
| 2026-05-09 14:43 | -7.14534 | -34.94998 | 218 ft | 2 kts | 62° |
| 2026-05-09 14:44 | -7.14544 | -34.95010 | 219 ft | 2 kts | 39° |
| 2026-05-09 14:44 | -7.14555 | -34.95020 | 219 ft | 2 kts | 47° |
| 2026-05-09 14:44 | -7.14565 | -34.95031 | 219 ft | 2 kts | 44° |
| 2026-05-09 14:44 | -7.14576 | -34.95041 | 219 ft | 2 kts | 45° |
| 2026-05-09 14:45 | -7.14586 | -34.95052 | 219 ft | 2 kts | 45° |
| 2026-05-09 14:45 | -7.14597 | -34.95063 | 219 ft | 2 kts | 39° |
| 2026-05-09 14:45 | -7.14611 | -34.95067 | 219 ft | 2 kts | 353° |
| 2026-05-09 14:45 | -7.14625 | -34.95062 | 219 ft | 2 kts | 331° |
| 2026-05-09 14:46 | -7.14638 | -34.95054 | 219 ft | 2 kts | 318° |
| 2026-05-09 14:46 | -7.14648 | -34.95043 | 219 ft | 2 kts | 315° |
| 2026-05-09 14:46 | -7.14659 | -34.95032 | 219 ft | 2 kts | 316° |
| 2026-05-09 14:46 | -7.14670 | -34.95022 | 219 ft | 2 kts | 315° |
| 2026-05-09 14:47 | -7.14680 | -34.95011 | 219 ft | 2 kts | 315° |
| 2026-05-09 14:47 | -7.14691 | -34.95000 | 219 ft | 2 kts | 315° |
| 2026-05-09 14:47 | -7.14702 | -34.94990 | 219 ft | 2 kts | 315° |
| 2026-05-09 14:47 | -7.14712 | -34.94979 | 219 ft | 2 kts | 314° |
| 2026-05-09 14:48 | -7.14723 | -34.94968 | 219 ft | 2 kts | 314° |
| 2026-05-09 14:48 | -7.14734 | -34.94958 | 219 ft | 2 kts | 314° |
| 2026-05-09 14:48 | -7.14744 | -34.94947 | 219 ft | 2 kts | 315° |
| 2026-05-09 14:48 | -7.14754 | -34.94937 | 219 ft | 1 kts | 314° |
| 2026-05-09 14:49 | -7.14755 | -34.94936 | 219 ft | 0 kts | 314° |
| 2026-05-09 14:52 | -7.14750 | -34.94941 | 219 ft | 3 kts | 314° |
| 2026-05-09 14:52 | -7.14726 | -34.94966 | 219 ft | 5 kts | 314° |
| 2026-05-09 14:52 | -7.14725 | -34.95007 | 219 ft | 7 kts | 229° |
| 2026-05-09 14:53 | -7.14766 | -34.95048 | 219 ft | 9 kts | 225° |
| 2026-05-09 14:53 | -7.14810 | -34.95099 | 219 ft | 9 kts | 254° |
| 2026-05-09 14:53 | -7.14771 | -34.95158 | 219 ft | 11 kts | 315° |
| 2026-05-09 14:53 | -7.14711 | -34.95217 | 219 ft | 12 kts | 316° |
| 2026-05-09 14:54 | -7.14645 | -34.95283 | 219 ft | 13 kts | 315° |
| 2026-05-09 14:54 | -7.14575 | -34.95352 | 219 ft | 14 kts | 315° |
| 2026-05-09 14:54 | -7.14502 | -34.95424 | 219 ft | 15 kts | 315° |
| 2026-05-09 14:54 | -7.14425 | -34.95501 | 219 ft | 15 kts | 315° |
| 2026-05-09 14:55 | -7.14347 | -34.95580 | 219 ft | 16 kts | 315° |
| 2026-05-09 14:55 | -7.14263 | -34.95662 | 219 ft | 16 kts | 314° |
| 2026-05-09 14:55 | -7.14183 | -34.95743 | 219 ft | 12 kts | 315° |
| 2026-05-09 14:55 | -7.14122 | -34.95794 | 219 ft | 10 kts | 335° |
| 2026-05-09 14:56 | -7.14059 | -34.95813 | 219 ft | 8 kts | 338° |
| 2026-05-09 14:56 | -7.14043 | -34.95851 | 219 ft | 4 kts | 244° |
| 2026-05-09 14:56 | -7.14059 | -34.95865 | 219 ft | 1 kts | 158° |
| 2026-05-09 14:56 | -7.14066 | -34.95859 | 219 ft | 1 kts | 134° |
| 2026-05-09 14:57 | -7.14128 | -34.95797 | 219 ft | 39 kts | 135° |
| 2026-05-09 14:57 | -7.14510 | -34.95417 | 219 ft | 111 kts | 135° |
| 2026-05-09 14:57 | -7.15185 | -34.94753 | 426 ft | 144 kts | 133° |
| 2026-05-09 14:57 | -7.15891 | -34.94047 | 1009 ft | 144 kts | 133° |
| 2026-05-09 14:58 | -7.16596 | -34.93343 | 1617 ft | 144 kts | 133° |
| 2026-05-09 14:58 | -7.17339 | -34.92602 | 1966 ft | 159 kts | 133° |
| 2026-05-09 14:58 | -7.18171 | -34.91776 | 2322 ft | 177 kts | 134° |
| 2026-05-09 14:58 | -7.19084 | -34.90863 | 2742 ft | 195 kts | 133° |
| 2026-05-09 14:59 | -7.20083 | -34.89859 | 3256 ft | 210 kts | 134° |
| 2026-05-09 14:59 | -7.21264 | -34.89035 | 4095 ft | 213 kts | 154° |
| 2026-05-09 14:59 | -7.22670 | -34.88547 | 4932 ft | 216 kts | 160° |
| 2026-05-09 14:59 | -7.24126 | -34.88169 | 5739 ft | 220 kts | 164° |
| 2026-05-09 15:00 | -7.25629 | -34.87885 | 6548 ft | 223 kts | 166° |
| 2026-05-09 15:00 | -7.27162 | -34.87611 | 7350 ft | 227 kts | 165° |
| 2026-05-09 15:00 | -7.28712 | -34.87328 | 8133 ft | 231 kts | 165° |
| 2026-05-09 15:00 | -7.30298 | -34.87032 | 8913 ft | 236 kts | 166° |
| 2026-05-09 15:01 | -7.33563 | -34.86413 | 10384 ft | 243 kts | 166° |
| 2026-05-09 15:01 | -7.35254 | -34.86092 | 10820 ft | 245 kts | 166° |
| 2026-05-09 15:01 | -7.36921 | -34.85776 | 10957 ft | 247 kts | 166° |
| 2026-05-09 15:02 | -7.38638 | -34.85474 | 10955 ft | 248 kts | 173° |
| 2026-05-09 15:02 | -7.40341 | -34.85719 | 10961 ft | 253 kts | 201° |
| 2026-05-09 15:02 | -7.41834 | -34.86670 | 10977 ft | 256 kts | 216° |
| 2026-05-09 15:02 | -7.43242 | -34.87795 | 10972 ft | 256 kts | 217° |
| 2026-05-09 15:03 | -7.44626 | -34.88917 | 10985 ft | 255 kts | 217° |
| 2026-05-09 15:03 | -7.46032 | -34.90040 | 10979 ft | 256 kts | 216° |
| 2026-05-09 15:03 | -7.47439 | -34.91148 | 10694 ft | 257 kts | 216° |
| 2026-05-09 15:03 | -7.48840 | -34.92245 | 10400 ft | 256 kts | 216° |
| 2026-05-09 15:04 | -7.50259 | -34.93350 | 10109 ft | 255 kts | 216° |
| 2026-05-09 15:04 | -7.51672 | -34.94449 | 9819 ft | 253 kts | 216° |
| 2026-05-09 15:06 | -7.61227 | -35.01872 | 7905 ft | 243 kts | 215° |
| 2026-05-09 15:06 | -7.62571 | -35.02916 | 7625 ft | 242 kts | 214° |
| 2026-05-09 15:06 | -7.63902 | -35.03952 | 7346 ft | 240 kts | 214° |
| 2026-05-09 15:06 | -7.65234 | -35.04987 | 7070 ft | 239 kts | 214° |
| 2026-05-09 15:07 | -7.66545 | -35.06008 | 6801 ft | 238 kts | 213° |
| 2026-05-09 15:07 | -7.67978 | -35.06782 | 6486 ft | 230 kts | 184° |
| 2026-05-09 15:07 | -7.69506 | -35.06589 | 6224 ft | 217 kts | 155° |
| 2026-05-09 15:07 | -7.70937 | -35.06052 | 5968 ft | 219 kts | 156° |
| 2026-05-09 15:08 | -7.72371 | -35.05556 | 5702 ft | 218 kts | 157° |
| 2026-05-09 15:08 | -7.75260 | -35.04601 | 5158 ft | 217 kts | 158° |
| 2026-05-09 15:08 | -7.76288 | -35.04268 | 4965 ft | 215 kts | 158° |
| 2026-05-09 15:09 | -7.77722 | -35.03802 | 4705 ft | 214 kts | 159° |
| 2026-05-09 15:10 | -7.87470 | -35.00652 | 3122 ft | 205 kts | 158° |
| 2026-05-09 15:11 | -7.88833 | -35.00200 | 3008 ft | 205 kts | 158° |
| 2026-05-09 15:11 | -7.90187 | -34.99751 | 2885 ft | 205 kts | 158° |
| 2026-05-09 15:11 | -7.91563 | -34.99297 | 2678 ft | 206 kts | 158° |
| 2026-05-09 15:11 | -7.92934 | -34.98841 | 2351 ft | 209 kts | 159° |
| 2026-05-09 15:12 | -7.94331 | -34.98379 | 2062 ft | 209 kts | 159° |
| 2026-05-09 15:12 | -7.95720 | -34.97919 | 1788 ft | 208 kts | 159° |
| 2026-05-09 15:12 | -7.97071 | -34.97468 | 1702 ft | 197 kts | 159° |
| 2026-05-09 15:12 | -7.98328 | -34.97049 | 1689 ft | 184 kts | 159° |
| 2026-05-09 15:13 | -7.99539 | -34.96646 | 1697 ft | 183 kts | 159° |
| 2026-05-09 15:13 | -8.00748 | -34.96246 | 1698 ft | 183 kts | 159° |
| 2026-05-09 15:13 | -8.01981 | -34.95838 | 1697 ft | 183 kts | 159° |
| 2026-05-09 15:13 | -8.03189 | -34.95439 | 1690 ft | 177 kts | 159° |
| 2026-05-09 15:14 | -8.04338 | -34.95061 | 1468 ft | 169 kts | 159° |
| 2026-05-09 15:14 | -8.05410 | -34.94708 | 1254 ft | 153 kts | 159° |
| 2026-05-09 15:14 | -8.06382 | -34.94387 | 1032 ft | 139 kts | 159° |
| 2026-05-09 15:14 | -8.07255 | -34.94098 | 843 ft | 129 kts | 158° |
| 2026-05-09 15:15 | -8.08119 | -34.93812 | 695 ft | 129 kts | 159° |
| 2026-05-09 15:15 | -8.08689 | -34.93623 | 593 ft | 129 kts | 159° |
| 2026-05-09 15:15 | -8.09834 | -34.93246 | 380 ft | 128 kts | 159° |
| 2026-05-09 15:15 | -8.10690 | -34.92963 | 214 ft | 127 kts | 159° |
| 2026-05-09 15:16 | -8.11528 | -34.92686 | 68 ft | 124 kts | 159° |
| 2026-05-09 15:16 | -8.12296 | -34.92430 | 43 ft | 99 kts | 162° |
| 2026-05-09 15:16 | -8.12796 | -34.92267 | 43 ft | 50 kts | 162° |
| 2026-05-09 15:16 | -8.13036 | -34.92186 | 43 ft | 24 kts | 162° |
| 2026-05-09 15:17 | -8.13161 | -34.92143 | 43 ft | 14 kts | 154° |
| 2026-05-09 15:17 | -8.13236 | -34.92079 | 43 ft | 13 kts | 131° |
| 2026-05-09 15:17 | -8.13292 | -34.92016 | 43 ft | 10 kts | 132° |
| 2026-05-09 15:17 | -8.13325 | -34.91979 | 43 ft | 5 kts | 132° |
| 2026-05-09 15:18 | -8.13355 | -34.91945 | 43 ft | 7 kts | 132° |
| 2026-05-09 15:18 | -8.13391 | -34.91919 | 43 ft | 6 kts | 158° |
| 2026-05-09 15:18 | -8.13420 | -34.91901 | 43 ft | 5 kts | 108° |
| 2026-05-09 15:18 | -8.13415 | -34.91873 | 43 ft | 4 kts | 71° |
| 2026-05-09 15:19 | -8.13406 | -34.91845 | 43 ft | 3 kts | 72° |
| 2026-05-09 15:19 | -8.13402 | -34.91833 | 43 ft | 0 kts | 71° |